sensor_id;sensor_type;location;lat;lon;timestamp;temperature;humidity
10306;DHT22;5198;52.382;9.020;2023-08-17T00:02:29;19.60;99.90
10306;DHT22;5198;52.382;9.020;2023-08-17T00:06:35;19.60;99.90
10306;DHT22;5198;52.382;9.020;2023-08-17T00:10:38;19.50;99.90
10306;DHT22;5198;52.382;9.020;2023-08-17T00:14:41;19.50;99.90
10306;DHT22;5198;52.382;9.020;2023-08-17T00:18:43;19.50;99.90
10306;DHT22;5198;52.382;9.020;2023-08-17T00:22:48;19.50;99.90
10306;DHT22;5198;52.382;9.020;2023-08-17T00:26:51;19.50;99.90
10306;DHT22;5198;52.382;9.020;2023-08-17T00:30:55;19.50;99.90
10306;DHT22;5198;52.382;9.020;2023-08-17T00:34:58;19.40;99.90
10306;DHT22;5198;52.382;9.020;2023-08-17T00:39:02;19.40;99.90
10306;DHT22;5198;52.382;9.020;2023-08-17T00:43:05;19.40;99.90
10306;DHT22;5198;52.382;9.020;2023-08-17T00:47:08;19.40;99.90
10306;DHT22;5198;52.382;9.020;2023-08-17T00:51:11;19.40;99.90
10306;DHT22;5198;52.382;9.020;2023-08-17T00:55:15;19.40;99.90
10306;DHT22;5198;52.382;9.020;2023-08-17T00:59:18;19.40;99.90
10306;DHT22;5198;52.382;9.020;2023-08-17T01:03:22;19.30;99.90
10306;DHT22;5198;52.382;9.020;2023-08-17T01:07:25;19.30;99.90
10306;DHT22;5198;52.382;9.020;2023-08-17T01:11:32;19.30;99.90
10306;DHT22;5198;52.382;9.020;2023-08-17T01:15:37;19.30;99.90
10306;DHT22;5198;52.382;9.020;2023-08-17T01:19:41;19.30;99.90
10306;DHT22;5198;52.382;9.020;2023-08-17T01:23:46;19.30;99.90
10306;DHT22;5198;52.382;9.020;2023-08-17T01:27:50;19.20;99.90
10306;DHT22;5198;52.382;9.020;2023-08-17T01:31:54;19.20;99.90
10306;DHT22;5198;52.382;9.020;2023-08-17T01:36:03;19.20;99.90
10306;DHT22;5198;52.382;9.020;2023-08-17T01:40:09;19.20;99.90
10306;DHT22;5198;52.382;9.020;2023-08-17T01:44:13;19.20;99.90
10306;DHT22;5198;52.382;9.020;2023-08-17T01:48:16;19.20;99.90
10306;DHT22;5198;52.382;9.020;2023-08-17T01:52:19;19.20;99.90
10306;DHT22;5198;52.382;9.020;2023-08-17T01:56:23;19.10;99.90
10306;DHT22;5198;52.382;9.020;2023-08-17T02:00:26;19.10;99.90
10306;DHT22;5198;52.382;9.020;2023-08-17T02:04:29;19.10;99.90
10306;DHT22;5198;52.382;9.020;2023-08-17T02:08:33;19.10;99.90
10306;DHT22;5198;52.382;9.020;2023-08-17T02:12:38;19.10;99.90
10306;DHT22;5198;52.382;9.020;2023-08-17T02:16:41;19.10;99.90
10306;DHT22;5198;52.382;9.020;2023-08-17T02:20:44;19.10;99.90
10306;DHT22;5198;52.382;9.020;2023-08-17T02:24:49;19.10;99.90
10306;DHT22;5198;52.382;9.020;2023-08-17T02:28:54;19.10;99.90
10306;DHT22;5198;52.382;9.020;2023-08-17T02:32:56;19.10;99.90
10306;DHT22;5198;52.382;9.020;2023-08-17T02:37:02;19.00;99.90
10306;DHT22;5198;52.382;9.020;2023-08-17T02:41:05;19.00;99.90
10306;DHT22;5198;52.382;9.020;2023-08-17T02:45:10;19.00;99.90
10306;DHT22;5198;52.382;9.020;2023-08-17T02:49:13;19.00;99.90
10306;DHT22;5198;52.382;9.020;2023-08-17T02:53:16;19.00;99.90
10306;DHT22;5198;52.382;9.020;2023-08-17T02:57:19;18.90;99.90
10306;DHT22;5198;52.382;9.020;2023-08-17T03:01:23;18.80;99.90
10306;DHT22;5198;52.382;9.020;2023-08-17T03:05:26;18.80;99.90
10306;DHT22;5198;52.382;9.020;2023-08-17T03:09:29;18.80;99.90
10306;DHT22;5198;52.382;9.020;2023-08-17T03:13:32;18.80;99.90
10306;DHT22;5198;52.382;9.020;2023-08-17T03:17:36;18.80;99.90
10306;DHT22;5198;52.382;9.020;2023-08-17T03:21:40;18.70;99.90
10306;DHT22;5198;52.382;9.020;2023-08-17T03:25:43;18.70;99.90
10306;DHT22;5198;52.382;9.020;2023-08-17T03:29:47;18.70;99.90
10306;DHT22;5198;52.382;9.020;2023-08-17T03:33:51;18.70;99.90
10306;DHT22;5198;52.382;9.020;2023-08-17T03:37:55;18.60;99.90
10306;DHT22;5198;52.382;9.020;2023-08-17T03:41:58;18.60;99.90
10306;DHT22;5198;52.382;9.020;2023-08-17T03:46:01;18.60;99.90
10306;DHT22;5198;52.382;9.020;2023-08-17T03:50:06;18.60;99.90
10306;DHT22;5198;52.382;9.020;2023-08-17T03:54:09;18.60;99.90
10306;DHT22;5198;52.382;9.020;2023-08-17T03:58:13;18.60;99.90
10306;DHT22;5198;52.382;9.020;2023-08-17T04:02:16;18.60;99.90
10306;DHT22;5198;52.382;9.020;2023-08-17T04:06:20;18.50;99.90
10306;DHT22;5198;52.382;9.020;2023-08-17T04:10:24;18.50;99.90
10306;DHT22;5198;52.382;9.020;2023-08-17T04:14:27;18.50;99.90
10306;DHT22;5198;52.382;9.020;2023-08-17T04:18:30;18.50;99.90
10306;DHT22;5198;52.382;9.020;2023-08-17T04:22:52;18.50;99.90
10306;DHT22;5198;52.382;9.020;2023-08-17T04:26:55;18.50;99.90
10306;DHT22;5198;52.382;9.020;2023-08-17T04:30:58;18.50;99.90
10306;DHT22;5198;52.382;9.020;2023-08-17T04:35:02;18.50;99.90
10306;DHT22;5198;52.382;9.020;2023-08-17T04:39:06;18.50;99.90
10306;DHT22;5198;52.382;9.020;2023-08-17T04:43:10;18.50;99.90
10306;DHT22;5198;52.382;9.020;2023-08-17T04:47:14;18.50;99.90
10306;DHT22;5198;52.382;9.020;2023-08-17T04:51:17;18.50;99.90
10306;DHT22;5198;52.382;9.020;2023-08-17T04:55:21;18.50;99.90
10306;DHT22;5198;52.382;9.020;2023-08-17T04:59:24;18.60;99.90
10306;DHT22;5198;52.382;9.020;2023-08-17T05:03:27;18.50;99.90
10306;DHT22;5198;52.382;9.020;2023-08-17T05:07:34;18.50;99.90
10306;DHT22;5198;52.382;9.020;2023-08-17T05:11:49;18.50;99.90
10306;DHT22;5198;52.382;9.020;2023-08-17T05:15:53;18.50;99.90
10306;DHT22;5198;52.382;9.020;2023-08-17T05:19:56;18.60;99.90
10306;DHT22;5198;52.382;9.020;2023-08-17T05:23:59;18.60;99.90
10306;DHT22;5198;52.382;9.020;2023-08-17T05:28:03;18.60;99.90
10306;DHT22;5198;52.382;9.020;2023-08-17T05:32:06;18.60;99.90
10306;DHT22;5198;52.382;9.020;2023-08-17T05:36:09;18.60;99.90
10306;DHT22;5198;52.382;9.020;2023-08-17T05:40:12;18.60;99.90
10306;DHT22;5198;52.382;9.020;2023-08-17T05:44:17;18.50;99.90
10306;DHT22;5198;52.382;9.020;2023-08-17T05:48:20;18.50;99.90
10306;DHT22;5198;52.382;9.020;2023-08-17T05:56:49;18.50;99.90
10306;DHT22;5198;52.382;9.020;2023-08-17T06:00:53;18.50;99.90
10306;DHT22;5198;52.382;9.020;2023-08-17T06:04:56;18.50;99.90
10306;DHT22;5198;52.382;9.020;2023-08-17T06:08:59;18.50;99.90
10306;DHT22;5198;52.382;9.020;2023-08-17T06:13:02;18.50;99.90
10306;DHT22;5198;52.382;9.020;2023-08-17T06:17:18;18.50;99.90
10306;DHT22;5198;52.382;9.020;2023-08-17T06:21:21;18.50;99.90
10306;DHT22;5198;52.382;9.020;2023-08-17T06:25:24;18.50;99.90
10306;DHT22;5198;52.382;9.020;2023-08-17T06:29:27;18.50;99.90
10306;DHT22;5198;52.382;9.020;2023-08-17T06:33:31;18.50;99.90
10306;DHT22;5198;52.382;9.020;2023-08-17T06:37:34;18.60;99.90
10306;DHT22;5198;52.382;9.020;2023-08-17T06:41:41;18.60;99.90
10306;DHT22;5198;52.382;9.020;2023-08-17T06:45:44;18.60;99.90
10306;DHT22;5198;52.382;9.020;2023-08-17T06:49:49;18.60;99.90
10306;DHT22;5198;52.382;9.020;2023-08-17T06:53:52;18.70;99.90
10306;DHT22;5198;52.382;9.020;2023-08-17T06:57:55;18.70;99.90
10306;DHT22;5198;52.382;9.020;2023-08-17T07:01:57;18.70;99.90
10306;DHT22;5198;52.382;9.020;2023-08-17T07:06:02;18.80;99.90
10306;DHT22;5198;52.382;9.020;2023-08-17T07:10:05;18.80;99.90
10306;DHT22;5198;52.382;9.020;2023-08-17T07:14:09;18.80;99.90
10306;DHT22;5198;52.382;9.020;2023-08-17T07:18:12;18.80;99.90
10306;DHT22;5198;52.382;9.020;2023-08-17T07:22:16;18.80;99.90
10306;DHT22;5198;52.382;9.020;2023-08-17T07:26:19;18.80;99.90
10306;DHT22;5198;52.382;9.020;2023-08-17T07:30:22;18.90;99.90
10306;DHT22;5198;52.382;9.020;2023-08-17T07:34:41;18.90;99.90
10306;DHT22;5198;52.382;9.020;2023-08-17T07:38:46;18.90;99.90
10306;DHT22;5198;52.382;9.020;2023-08-17T07:42:48;18.90;99.90
10306;DHT22;5198;52.382;9.020;2023-08-17T07:46:51;18.90;99.90
10306;DHT22;5198;52.382;9.020;2023-08-17T07:50:54;19.00;99.90
10306;DHT22;5198;52.382;9.020;2023-08-17T07:55:01;19.00;99.90
10306;DHT22;5198;52.382;9.020;2023-08-17T07:59:05;19.00;99.90
10306;DHT22;5198;52.382;9.020;2023-08-17T08:03:07;19.00;99.90
10306;DHT22;5198;52.382;9.020;2023-08-17T08:07:11;19.10;99.90
10306;DHT22;5198;52.382;9.020;2023-08-17T08:11:24;19.10;99.90
10306;DHT22;5198;52.382;9.020;2023-08-17T08:15:29;19.10;99.90
10306;DHT22;5198;52.382;9.020;2023-08-17T08:19:32;19.20;99.90
10306;DHT22;5198;52.382;9.020;2023-08-17T08:23:35;19.20;99.90
10306;DHT22;5198;52.382;9.020;2023-08-17T08:27:39;19.20;99.90
10306;DHT22;5198;52.382;9.020;2023-08-17T08:31:43;19.20;99.90
10306;DHT22;5198;52.382;9.020;2023-08-17T08:35:46;19.20;99.90
10306;DHT22;5198;52.382;9.020;2023-08-17T08:44:17;19.30;99.90
10306;DHT22;5198;52.382;9.020;2023-08-17T08:48:35;19.30;99.90
10306;DHT22;5198;52.382;9.020;2023-08-17T08:52:39;19.30;99.90
10306;DHT22;5198;52.382;9.020;2023-08-17T08:56:44;19.30;99.90
10306;DHT22;5198;52.382;9.020;2023-08-17T09:00:50;19.30;99.90
10306;DHT22;5198;52.382;9.020;2023-08-17T09:04:53;19.30;99.90
10306;DHT22;5198;52.382;9.020;2023-08-17T09:09:00;19.30;99.90
10306;DHT22;5198;52.382;9.020;2023-08-17T09:13:07;19.30;99.90
10306;DHT22;5198;52.382;9.020;2023-08-17T09:17:12;19.30;99.90
10306;DHT22;5198;52.382;9.020;2023-08-17T09:21:20;19.30;99.90
10306;DHT22;5198;52.382;9.020;2023-08-17T09:25:25;19.40;99.90
10306;DHT22;5198;52.382;9.020;2023-08-17T09:29:37;19.40;99.90
10306;DHT22;5198;52.382;9.020;2023-08-17T09:38:44;19.30;99.90
10306;DHT22;5198;52.382;9.020;2023-08-17T09:42:50;19.30;99.90
10306;DHT22;5198;52.382;9.020;2023-08-17T09:46:56;19.40;99.90
10306;DHT22;5198;52.382;9.020;2023-08-17T09:51:43;19.40;99.90
10306;DHT22;5198;52.382;9.020;2023-08-17T09:56:29;19.50;99.90
10306;DHT22;5198;52.382;9.020;2023-08-17T10:00:50;19.50;99.90
10306;DHT22;5198;52.382;9.020;2023-08-17T10:04:55;19.60;99.90
10306;DHT22;5198;52.382;9.020;2023-08-17T10:13:34;19.70;99.90
10306;DHT22;5198;52.382;9.020;2023-08-17T10:17:44;19.70;99.90
10306;DHT22;5198;52.382;9.020;2023-08-17T10:21:48;19.70;99.90
10306;DHT22;5198;52.382;9.020;2023-08-17T10:25:53;19.80;99.90
10306;DHT22;5198;52.382;9.020;2023-08-17T10:29:57;19.70;99.90
10306;DHT22;5198;52.382;9.020;2023-08-17T10:34:01;19.70;99.90
10306;DHT22;5198;52.382;9.020;2023-08-17T10:38:05;19.70;99.90
10306;DHT22;5198;52.382;9.020;2023-08-17T10:46:36;19.80;99.90
10306;DHT22;5198;52.382;9.020;2023-08-17T10:50:39;19.70;99.90
10306;DHT22;5198;52.382;9.020;2023-08-17T10:54:44;19.70;99.90
10306;DHT22;5198;52.382;9.020;2023-08-17T10:58:48;19.70;99.90
10306;DHT22;5198;52.382;9.020;2023-08-17T11:02:56;19.60;99.90
10306;DHT22;5198;52.382;9.020;2023-08-17T11:07:01;19.60;99.90
10306;DHT22;5198;52.382;9.020;2023-08-17T11:11:06;19.60;99.90
10306;DHT22;5198;52.382;9.020;2023-08-17T11:15:09;19.50;99.90
10306;DHT22;5198;52.382;9.020;2023-08-17T11:19:14;19.50;99.90
10306;DHT22;5198;52.382;9.020;2023-08-17T11:23:21;19.50;99.90
10306;DHT22;5198;52.382;9.020;2023-08-17T11:27:30;19.50;99.90
10306;DHT22;5198;52.382;9.020;2023-08-17T11:31:32;19.50;99.90
10306;DHT22;5198;52.382;9.020;2023-08-17T11:35:37;19.50;99.90
10306;DHT22;5198;52.382;9.020;2023-08-17T11:39:41;19.50;99.90
10306;DHT22;5198;52.382;9.020;2023-08-17T11:43:44;19.50;99.90
10306;DHT22;5198;52.382;9.020;2023-08-17T11:47:48;19.40;99.90
10306;DHT22;5198;52.382;9.020;2023-08-17T11:51:53;19.40;99.90
10306;DHT22;5198;52.382;9.020;2023-08-17T11:55:55;19.40;99.90
10306;DHT22;5198;52.382;9.020;2023-08-17T12:00:01;19.40;99.90
10306;DHT22;5198;52.382;9.020;2023-08-17T12:04:06;19.30;99.90
10306;DHT22;5198;52.382;9.020;2023-08-17T12:08:10;19.30;99.90
10306;DHT22;5198;52.382;9.020;2023-08-17T12:12:17;19.30;99.90
10306;DHT22;5198;52.382;9.020;2023-08-17T12:16:20;19.20;99.90
10306;DHT22;5198;52.382;9.020;2023-08-17T12:20:24;19.20;99.90
10306;DHT22;5198;52.382;9.020;2023-08-17T12:24:28;19.10;99.90
10306;DHT22;5198;52.382;9.020;2023-08-17T12:28:32;19.20;99.90
10306;DHT22;5198;52.382;9.020;2023-08-17T12:32:35;19.10;99.90
10306;DHT22;5198;52.382;9.020;2023-08-17T12:36:38;19.10;99.90
10306;DHT22;5198;52.382;9.020;2023-08-17T12:40:43;19.10;99.90
10306;DHT22;5198;52.382;9.020;2023-08-17T12:44:45;19.10;99.90
10306;DHT22;5198;52.382;9.020;2023-08-17T12:48:49;19.10;99.90
10306;DHT22;5198;52.382;9.020;2023-08-17T12:52:51;19.10;99.90
10306;DHT22;5198;52.382;9.020;2023-08-17T12:56:56;19.10;99.90
10306;DHT22;5198;52.382;9.020;2023-08-17T13:01:01;19.20;99.90
10306;DHT22;5198;52.382;9.020;2023-08-17T13:05:05;19.20;99.90
10306;DHT22;5198;52.382;9.020;2023-08-17T13:09:08;19.20;99.90
10306;DHT22;5198;52.382;9.020;2023-08-17T13:13:14;19.20;99.90
10306;DHT22;5198;52.382;9.020;2023-08-17T13:17:17;19.20;99.90
10306;DHT22;5198;52.382;9.020;2023-08-17T13:21:19;19.20;99.90
10306;DHT22;5198;52.382;9.020;2023-08-17T13:25:22;19.20;99.90
10306;DHT22;5198;52.382;9.020;2023-08-17T13:29:27;19.20;99.90
10306;DHT22;5198;52.382;9.020;2023-08-17T13:33:30;19.20;99.90
10306;DHT22;5198;52.382;9.020;2023-08-17T13:37:33;19.20;99.90
10306;DHT22;5198;52.382;9.020;2023-08-17T13:41:36;19.20;99.90
10306;DHT22;5198;52.382;9.020;2023-08-17T13:45:40;19.20;99.90
10306;DHT22;5198;52.382;9.020;2023-08-17T13:49:43;19.30;99.90
10306;DHT22;5198;52.382;9.020;2023-08-17T13:53:46;19.30;99.90
10306;DHT22;5198;52.382;9.020;2023-08-17T13:57:49;19.30;99.90
10306;DHT22;5198;52.382;9.020;2023-08-17T14:06:33;19.40;99.90
10306;DHT22;5198;52.382;9.020;2023-08-17T14:10:36;19.50;99.90
10306;DHT22;5198;52.382;9.020;2023-08-17T14:14:41;19.50;99.90
10306;DHT22;5198;52.382;9.020;2023-08-17T14:18:45;19.50;99.90
10306;DHT22;5198;52.382;9.020;2023-08-17T14:22:50;19.60;99.90
10306;DHT22;5198;52.382;9.020;2023-08-17T14:26:52;19.60;99.90
10306;DHT22;5198;52.382;9.020;2023-08-17T14:31:04;19.60;99.90
10306;DHT22;5198;52.382;9.020;2023-08-17T14:35:07;19.60;99.90
10306;DHT22;5198;52.382;9.020;2023-08-17T14:39:15;19.60;99.90
10306;DHT22;5198;52.382;9.020;2023-08-17T14:43:18;19.60;99.90
10306;DHT22;5198;52.382;9.020;2023-08-17T14:51:40;19.70;99.90
10306;DHT22;5198;52.382;9.020;2023-08-17T14:55:45;19.70;99.90
10306;DHT22;5198;52.382;9.020;2023-08-17T14:59:51;19.60;99.90
10306;DHT22;5198;52.382;9.020;2023-08-17T15:04:01;19.60;99.90
10306;DHT22;5198;52.382;9.020;2023-08-17T15:08:04;19.60;99.90
10306;DHT22;5198;52.382;9.020;2023-08-17T15:17:13;19.60;99.90
10306;DHT22;5198;52.382;9.020;2023-08-17T15:21:16;19.60;99.90
10306;DHT22;5198;52.382;9.020;2023-08-17T15:25:18;19.60;99.90
10306;DHT22;5198;52.382;9.020;2023-08-17T15:29:21;19.60;99.90
10306;DHT22;5198;52.382;9.020;2023-08-17T15:33:28;19.60;99.90
10306;DHT22;5198;52.382;9.020;2023-08-17T15:41:42;19.60;99.90
10306;DHT22;5198;52.382;9.020;2023-08-17T15:45:45;19.60;99.90
10306;DHT22;5198;52.382;9.020;2023-08-17T15:49:54;19.60;99.90
10306;DHT22;5198;52.382;9.020;2023-08-17T15:53:57;19.60;99.90
10306;DHT22;5198;52.382;9.020;2023-08-17T16:02:23;19.50;99.90
10306;DHT22;5198;52.382;9.020;2023-08-17T16:06:27;19.50;99.90
10306;DHT22;5198;52.382;9.020;2023-08-17T16:10:46;19.50;99.90
10306;DHT22;5198;52.382;9.020;2023-08-17T16:14:51;19.50;99.90
10306;DHT22;5198;52.382;9.020;2023-08-17T16:18:57;19.40;99.90
10306;DHT22;5198;52.382;9.020;2023-08-17T16:23:06;19.40;99.90
10306;DHT22;5198;52.382;9.020;2023-08-17T16:27:10;19.40;99.90
10306;DHT22;5198;52.382;9.020;2023-08-17T16:31:13;19.30;99.90
10306;DHT22;5198;52.382;9.020;2023-08-17T16:39:43;19.20;99.90
10306;DHT22;5198;52.382;9.020;2023-08-17T16:43:47;19.20;99.90
10306;DHT22;5198;52.382;9.020;2023-08-17T16:47:50;19.20;99.90
10306;DHT22;5198;52.382;9.020;2023-08-17T16:51:55;19.20;99.90
10306;DHT22;5198;52.382;9.020;2023-08-17T16:56:02;19.10;99.90
10306;DHT22;5198;52.382;9.020;2023-08-17T17:00:12;19.10;99.90
10306;DHT22;5198;52.382;9.020;2023-08-17T17:04:15;19.10;99.90
10306;DHT22;5198;52.382;9.020;2023-08-17T17:08:19;19.10;99.90
10306;DHT22;5198;52.382;9.020;2023-08-17T17:12:23;19.10;99.90
10306;DHT22;5198;52.382;9.020;2023-08-17T17:16:26;19.00;99.90
10306;DHT22;5198;52.382;9.020;2023-08-17T17:20:29;19.00;99.90
10306;DHT22;5198;52.382;9.020;2023-08-17T17:24:33;19.00;99.90
10306;DHT22;5198;52.382;9.020;2023-08-17T17:28:38;18.90;99.90
10306;DHT22;5198;52.382;9.020;2023-08-17T17:32:41;18.90;99.90
10306;DHT22;5198;52.382;9.020;2023-08-17T17:36:45;18.90;99.90
10306;DHT22;5198;52.382;9.020;2023-08-17T17:40:49;18.80;99.90
10306;DHT22;5198;52.382;9.020;2023-08-17T17:54:09;18.80;99.90
10306;DHT22;5198;52.382;9.020;2023-08-17T17:58:12;18.70;99.90
10306;DHT22;5198;52.382;9.020;2023-08-17T18:02:23;18.70;99.90
10306;DHT22;5198;52.382;9.020;2023-08-17T18:10:42;18.70;99.90
10306;DHT22;5198;52.382;9.020;2023-08-17T18:18:57;18.70;99.90
10306;DHT22;5198;52.382;9.020;2023-08-17T18:23:00;18.60;99.90
10306;DHT22;5198;52.382;9.020;2023-08-17T18:27:05;18.60;99.90
10306;DHT22;5198;52.382;9.020;2023-08-17T18:31:08;18.60;99.90
10306;DHT22;5198;52.382;9.020;2023-08-17T18:45:20;18.50;99.90
10306;DHT22;5198;52.382;9.020;2023-08-17T18:49:24;18.50;99.90
10306;DHT22;5198;52.382;9.020;2023-08-17T18:53:37;18.50;99.90
10306;DHT22;5198;52.382;9.020;2023-08-17T18:57:40;18.50;99.90
10306;DHT22;5198;52.382;9.020;2023-08-17T19:01:44;18.40;99.90
10306;DHT22;5198;52.382;9.020;2023-08-17T19:05:47;18.40;99.90
10306;DHT22;5198;52.382;9.020;2023-08-17T19:09:50;18.40;99.90
10306;DHT22;5198;52.382;9.020;2023-08-17T19:18:23;18.40;99.90
10306;DHT22;5198;52.382;9.020;2023-08-17T19:22:25;18.40;99.90
10306;DHT22;5198;52.382;9.020;2023-08-17T19:26:31;18.40;99.90
10306;DHT22;5198;52.382;9.020;2023-08-17T19:30:37;18.40;99.90
10306;DHT22;5198;52.382;9.020;2023-08-17T19:34:43;18.30;99.90
10306;DHT22;5198;52.382;9.020;2023-08-17T19:38:45;18.40;99.90
10306;DHT22;5198;52.382;9.020;2023-08-17T19:42:51;18.30;99.90
10306;DHT22;5198;52.382;9.020;2023-08-17T19:46:54;18.30;99.90
10306;DHT22;5198;52.382;9.020;2023-08-17T19:50:58;18.30;99.90
10306;DHT22;5198;52.382;9.020;2023-08-17T19:55:02;18.30;99.90
10306;DHT22;5198;52.382;9.020;2023-08-17T19:59:05;18.30;99.90
10306;DHT22;5198;52.382;9.020;2023-08-17T20:03:16;18.30;99.90
10306;DHT22;5198;52.382;9.020;2023-08-17T20:07:27;18.30;99.90
10306;DHT22;5198;52.382;9.020;2023-08-17T20:11:32;18.30;99.90
10306;DHT22;5198;52.382;9.020;2023-08-17T20:15:36;18.30;99.90
10306;DHT22;5198;52.382;9.020;2023-08-17T20:19:46;18.30;99.90
10306;DHT22;5198;52.382;9.020;2023-08-17T20:23:50;18.30;99.90
10306;DHT22;5198;52.382;9.020;2023-08-17T20:27:53;18.30;99.90
10306;DHT22;5198;52.382;9.020;2023-08-17T20:36:18;18.20;99.90
10306;DHT22;5198;52.382;9.020;2023-08-17T20:40:41;18.20;99.90
10306;DHT22;5198;52.382;9.020;2023-08-17T20:44:45;18.20;99.90
10306;DHT22;5198;52.382;9.020;2023-08-17T20:48:48;18.20;99.90
10306;DHT22;5198;52.382;9.020;2023-08-17T20:52:53;18.20;99.90
10306;DHT22;5198;52.382;9.020;2023-08-17T20:56:58;18.20;99.90
10306;DHT22;5198;52.382;9.020;2023-08-17T21:05:52;18.20;99.90
10306;DHT22;5198;52.382;9.020;2023-08-17T21:09:55;18.20;99.90
10306;DHT22;5198;52.382;9.020;2023-08-17T21:13:59;18.10;99.90
10306;DHT22;5198;52.382;9.020;2023-08-17T21:18:02;18.10;99.90
10306;DHT22;5198;52.382;9.020;2023-08-17T21:22:05;18.10;99.90
10306;DHT22;5198;52.382;9.020;2023-08-17T21:26:08;18.10;99.90
10306;DHT22;5198;52.382;9.020;2023-08-17T21:30:12;18.10;99.90
10306;DHT22;5198;52.382;9.020;2023-08-17T21:34:16;18.10;99.90
10306;DHT22;5198;52.382;9.020;2023-08-17T21:38:21;18.10;99.90
10306;DHT22;5198;52.382;9.020;2023-08-17T21:42:24;18.00;99.90
10306;DHT22;5198;52.382;9.020;2023-08-17T21:46:28;18.00;99.90
10306;DHT22;5198;52.382;9.020;2023-08-17T21:50:31;18.00;99.90
10306;DHT22;5198;52.382;9.020;2023-08-17T21:54:34;18.00;99.90
10306;DHT22;5198;52.382;9.020;2023-08-17T21:58:37;18.00;99.90
10306;DHT22;5198;52.382;9.020;2023-08-17T22:02:41;18.00;99.90
10306;DHT22;5198;52.382;9.020;2023-08-17T22:06:46;18.00;99.90
10306;DHT22;5198;52.382;9.020;2023-08-17T22:10:49;17.90;99.90
10306;DHT22;5198;52.382;9.020;2023-08-17T22:14:52;18.00;99.90
10306;DHT22;5198;52.382;9.020;2023-08-17T22:18:56;17.90;99.90
10306;DHT22;5198;52.382;9.020;2023-08-17T22:23:00;17.90;99.90
10306;DHT22;5198;52.382;9.020;2023-08-17T22:27:03;17.90;99.90
10306;DHT22;5198;52.382;9.020;2023-08-17T22:31:07;17.90;99.90
10306;DHT22;5198;52.382;9.020;2023-08-17T22:35:11;17.90;99.90
10306;DHT22;5198;52.382;9.020;2023-08-17T22:39:14;17.90;99.90
10306;DHT22;5198;52.382;9.020;2023-08-17T22:43:17;17.90;99.90
10306;DHT22;5198;52.382;9.020;2023-08-17T22:47:20;17.80;99.90
10306;DHT22;5198;52.382;9.020;2023-08-17T22:51:24;17.80;99.90
10306;DHT22;5198;52.382;9.020;2023-08-17T22:55:27;17.80;99.90
10306;DHT22;5198;52.382;9.020;2023-08-17T22:59:30;17.80;99.90
10306;DHT22;5198;52.382;9.020;2023-08-17T23:03:33;17.80;99.90
10306;DHT22;5198;52.382;9.020;2023-08-17T23:07:37;17.80;99.90
10306;DHT22;5198;52.382;9.020;2023-08-17T23:11:40;17.80;99.90
10306;DHT22;5198;52.382;9.020;2023-08-17T23:15:43;17.80;99.90
10306;DHT22;5198;52.382;9.020;2023-08-17T23:19:46;17.80;99.90
10306;DHT22;5198;52.382;9.020;2023-08-17T23:23:51;17.80;99.90
10306;DHT22;5198;52.382;9.020;2023-08-17T23:27:54;17.80;99.90
10306;DHT22;5198;52.382;9.020;2023-08-17T23:31:57;17.90;99.90
10306;DHT22;5198;52.382;9.020;2023-08-17T23:36:18;17.80;99.90
10306;DHT22;5198;52.382;9.020;2023-08-17T23:40:22;17.80;99.90
10306;DHT22;5198;52.382;9.020;2023-08-17T23:44:25;17.80;99.90
10306;DHT22;5198;52.382;9.020;2023-08-17T23:48:31;17.80;99.90
10306;DHT22;5198;52.382;9.020;2023-08-17T23:56:48;17.80;99.90
